KAPC

Napa County Airport

Napa, California, USA
METAR KAPC 132354Z 08008G14KT 10SM CLR 15/03 A3018 RMK AO2 SLP209 60000 T01500033 10161 20106 55014
Observed Flight Rules
Dec-13 @ 23:54 UTC (50 minutes ago) Visual Flight Rules
Wind Visibility Clouds
80° at 8 knots
 Gusting to 14 knots
10 miles
  • Clear skies
Temperatures Readings
Current 15°C / 59°F
Dewpoint 3°C / 37°F
Humidity 45%
Altimeter 30.18" Hg
Pressure 1020.9 hPa
Elevation 13
METAR KAPC 132354Z 08008G14KT 10SM CLR 15/03 A3018 RMK AO2 SLP209 60000 T01500033 10161 20106 55014
Observed Flight Rules
Dec-13 @ 23:54 UTC
(50 minutes ago)
VFR
Wind Visibility
80° at 8 knots
 Gusting to 14 knots
10 miles
Clouds
  • Clear skies
Temperature Dewpoint
15°C / 59°F 3°C / 37°F
Humidity Altimeter Pressure
45% 30.18" Hg 1020.9 hPa